LIMW/AOT METAR and TAF weather

Enter ICAO airport designator
Station Type Date Time Source
LIMW METAR 2021/01/17 14:50 UTC NOAA

LIMW 171450Z AUTO 27013KT 9999 NCD 08/M06 Q1015


Station Type Date Time Source
LIMW Decoded METAR 2021/01/17 14:50 UTC NOAA

Station name not available
Jan 17, 2021 - 09:50 AM EST / 2021.01.17 1450 UTC
Wind: from the W (270 degrees) at 15 MPH (13 KT):0
Visibility: greater than 7 mile(s):0
Temperature: 46 F (8 C)
Dew Point: 21 F (-6 C)
Relative Humidity: 36%
Pressure (altimeter): 29.97 in. Hg (1015 hPa)
ob: LIMW 171450Z AUTO 27013KT 9999 NCD 08/M06 Q1015
cycle: 15

Station Type Date Time Source
LIMW TAF UTC NOAA

Error!

Example: see airport list